Buoy 41938

sailwx.info

Track history (hours):
 
Tides and Currents Weather Stations Pressure Air Temp Water Temp Dewpoint Dewpoint Depression Visibility Wind Speed Wind Dir Waves Ship Positions

Drifting buoy 41938

Last reported at 2014-Jul-23 20:00 UTC. Time now 2014-Jul-23 22:12 UTC.
Position N 30°38' W 070°11'.

Barometer 1021.5 mb
Water temperature 28.8 ° C

Date/timePositionNaut miles runAvg speedWind from/ knotsBaromVisibWave heightAir tempDewpointWater temp
2014-Jul-23 20:00N 30°38' W 070°11'0 0.2 1021.5 28.8
2014-Jul-23 19:00N 30°38' W 070°11'0 0.3 1021.6 28.9
2014-Jul-23 18:00N 30°38' W 070°11'1 0.4 1022.2 28.9
2014-Jul-23 16:00N 30°37' W 070°11'4 1.9 1022.1 28.8
2014-Jul-23 14:00N 30°33' W 070°12'2 0.4 1022.3 28.7
2014-Jul-23 10:00N 30°33' W 070°11'3 0.9 1022.1 28.7
2014-Jul-23 07:00N 30°30' W 070°10'2 1.1 1022.0 28.7
2014-Jul-23 05:00N 30°28' W 070°09'2 0.5 1023.0 28.7
2014-Jul-23 02:00N 30°28' W 070°08'1 0.8 1023.2 28.8
2014-Jul-23 01:00N 30°28' W 070°07'0 0.3 1023.2 28.8
2014-Jul-23 00:00N 30°27' W 070°07'1 0.5 1023.0 28.9
2014-Jul-22 21:00N 30°26' W 070°07'0 0.0 1022.5 29.0
2014-Jul-22 19:00N 30°26' W 070°07'3 0.6 1022.7 29.0
2014-Jul-22 15:00N 30°23' W 070°08'4 3.7 1023.5 28.7
2014-Jul-22 14:00N 30°20' W 070°08'0 0.1 1023.2 28.7
2014-Jul-22 10:00N 30°19' W 070°08'1 1.1 1022.1 28.6
2014-Jul-22 09:00N 30°19' W 070°07'1 1.0 1021.9 28.6
2014-Jul-22 08:00N 30°18' W 070°06'1 1.2 1021.8 28.6
2014-Jul-22 07:00N 30°17' W 070°06'2 1.0 1021.9 28.6
2014-Jul-22 05:00N 30°15' W 070°06'0 0.0 1022.5 28.7
2014-Jul-22 04:00N 30°15' W 070°06'1 0.3 1023.2 28.7
2014-Jul-22 02:00N 30°15' W 070°05'2 1.8 1023.5 28.8
2014-Jul-22 01:00N 30°13' W 070°05'0 0.0 1022.9 28.8
2014-Jul-22 00:00N 30°13' W 070°05'0 0.0 1022.6 28.8
2014-Jul-21 23:00N 30°13' W 070°05'0 0.0 1022.2 28.9
2014-Jul-21 22:00N 30°13' W 070°05'1 0.8 1022.1 29.0
2014-Jul-21 21:00N 30°13' W 070°06'0 0.3 1022.0 29.0
2014-Jul-21 20:00N 30°12' W 070°06'2 1.0 1022.1 29.1
2014-Jul-21 18:00N 30°10' W 070°07'0 0.1 1022.8 28.9
2014-Jul-21 17:00N 30°10' W 070°06'2 0.8 1023.0 28.8
2014-Jul-21 15:00N 30°09' W 070°06'0 0.5 1023.0 28.7
2014-Jul-21 14:00N 30°08' W 070°07'2 1.6 1022.9 28.6
2014-Jul-21 13:00N 30°07' W 070°07'0 0.0 1022.7 28.6
2014-Jul-21 12:00N 30°07' W 070°07'0 0.0 1022.5 28.5
2014-Jul-21 11:00N 30°07' W 070°07'1 0.7 1022.2 28.5
2014-Jul-21 10:00N 30°06' W 070°07'1 1.0 1021.7 28.5
2014-Jul-21 09:00N 30°05' W 070°07'1 0.7 1021.2 28.5
2014-Jul-21 08:00N 30°04' W 070°07'1 1.3 1021.1 28.6
2014-Jul-21 07:00N 30°03' W 070°07'0 0.0 1021.2 28.6
2014-Jul-21 05:00N 30°03' W 070°07'2 0.9 1022.1 28.6
2014-Jul-21 03:00N 30°02' W 070°06'1 0.5 1022.3 28.6
2014-Jul-21 02:00N 30°01' W 070°05'0 0.4 1022.3 28.7
2014-Jul-21 01:00N 30°01' W 070°06'0 0.0 1021.9 28.7
2014-Jul-21 00:00N 30°01' W 070°06'0 0.3 1021.5 28.7
2014-Jul-20 23:00N 30°01' W 070°06'0 0.4 1021.3 28.8
2014-Jul-20 22:00N 30°00' W 070°06'0 0.4 1021.3 28.8
2014-Jul-20 21:00N 30°00' W 070°07'1 0.6 1021.0 28.9
2014-Jul-20 19:00N 29°59' W 070°07'1 1.3 1021.7 28.8
2014-Jul-20 18:00N 29°58' W 070°08'1 1.3 1022.1 28.7
2014-Jul-20 17:00N 29°57' W 070°08'0 0.0 1022.3 28.7
2014-Jul-20 15:00N 29°57' W 070°08'1 0.5 1022.5 28.6
2014-Jul-20 14:00N 29°56' W 070°07'1 0.6 1022.2 28.5
2014-Jul-20 13:00N 29°56' W 070°08'1 0.7 1021.7 28.5
2014-Jul-20 12:00N 29°55' W 070°08'0 0.3 1021.7 28.5
2014-Jul-20 11:00N 29°55' W 070°08'1 0.8 1021.3 28.5
2014-Jul-20 10:00N 29°55' W 070°08'1 0.5 1020.7 28.5
2014-Jul-20 09:00N 29°54' W 070°08'1 0.8 1020.9 28.5
2014-Jul-20 08:00N 29°53' W 070°08'0 0.0 1020.8 28.5
2014-Jul-20 07:00N 29°53' W 070°08'2 0.9 1021.1 28.5
2014-Jul-20 05:00N 29°51' W 070°09'0 0.0 1022.2 28.5
2014-Jul-20 04:00N 29°51' W 070°09'1 0.3 1022.6 28.5
2014-Jul-20 01:00N 29°51' W 070°09'1 0.6 1022.3 28.6
2014-Jul-20 00:00N 29°50' W 070°09'1 0.4 1021.9 28.6
2014-Jul-19 22:00N 29°49' W 070°09'1 0.6 1021.3 28.6
2014-Jul-19 21:00N 29°49' W 070°10'1 0.8 1021.2 28.6
2014-Jul-19 20:00N 29°49' W 070°09'1 1.1 1021.3 28.6
2014-Jul-19 19:00N 29°48' W 070°10'0 0.0 1021.4 28.6
2014-Jul-19 17:00N 29°48' W 070°10'1 0.3 1022.0 28.6
2014-Jul-19 15:00N 29°48' W 070°10'0 0.3 1022.1 28.5
2014-Jul-19 14:00N 29°48' W 070°11'3 0.7 1022.5 28.5
2014-Jul-19 10:00N 29°46' W 070°13'0 0.0 1021.8 28.5
2014-Jul-19 09:00N 29°46' W 070°13'1 0.6 1021.6 28.5
2014-Jul-19 08:00N 29°46' W 070°14'1 1.0 1021.1 28.5
2014-Jul-19 07:00N 29°45' W 070°14'1 1.2 1021.1 28.5
2014-Jul-19 06:00N 29°43' W 070°13'1 0.2 1021.5 28.5
2014-Jul-19 02:00N 29°43' W 070°12'1 1.1 1022.1 28.6
2014-Jul-19 01:00N 29°43' W 070°14'1 0.6 1021.8 28.6
2014-Jul-19 00:00N 29°44' W 070°14'0 0.0 1021.5 28.6
2014-Jul-18 23:00N 29°44' W 070°14'0 0.2 1021.1 28.6
2014-Jul-18 22:00N 29°43' W 070°14'1 0.6 1020.8 28.6
2014-Jul-18 20:00N 29°43' W 070°15'0 0.0 1021.0 28.7
2014-Jul-18 19:00N 29°43' W 070°15'1 0.5 1021.2 28.7
2014-Jul-18 17:00N 29°42' W 070°16'0 0.2 1021.2 28.7
2014-Jul-18 16:00N 29°43' W 070°16'0 0.1 1021.4 28.7
2014-Jul-18 15:00N 29°43' W 070°16'1 1.2 1021.4 28.7
2014-Jul-18 14:00N 29°42' W 070°18'0 0.1 1021.4 28.6
2014-Jul-18 10:00N 29°42' W 070°17'0 0.0 1020.4 28.6
2014-Jul-18 09:00N 29°42' W 070°17'1 1.2 1019.8 28.7
2014-Jul-18 08:00N 29°42' W 070°19'2 1.0 1019.6 28.7
2014-Jul-18 06:00N 29°41' W 070°21'0 0.0 1019.6 28.7
2014-Jul-18 02:00N 29°41' W 070°20'0 0.3 1020.5 28.8
2014-Jul-18 01:00N 29°41' W 070°20'1 0.5 1020.3 28.8
2014-Jul-18 00:00N 29°41' W 070°20'0 0.0 1019.7 28.8
2014-Jul-17 23:00N 29°41' W 070°20'1 0.9 1019.6 28.8
2014-Jul-17 22:00N 29°42' W 070°20'1 0.4 1019.4 28.8
2014-Jul-17 20:00N 29°41' W 070°21'1 0.8 1019.5 28.9
2014-Jul-17 19:00N 29°42' W 070°21'2 0.4 1019.6 28.9
2014-Jul-17 15:00N 29°43' W 070°22'1 0.7 1019.9 28.8
2014-Jul-17 14:00N 29°44' W 070°23'1 0.5 1019.7 28.8
2014-Jul-17 11:00N 29°44' W 070°24'3 1.0 1019.0 28.8
2014-Jul-17 08:00N 29°43' W 070°28'1 0.6 1017.9 28.9
2014-Jul-17 06:00N 29°42' W 070°27'1 0.2 1018.6 29.0
2014-Jul-17 01:00N 29°42' W 070°26'1 0.6 1019.0 29.2
2014-Jul-17 00:00N 29°43' W 070°26'1 0.3 1018.9 29.2
2014-Jul-16 22:00N 29°43' W 070°26'1 0.6 1018.1 29.3
2014-Jul-16 20:00N 29°44' W 070°26'0 0.0 1018.2 29.3
2014-Jul-16 18:00N 29°44' W 070°26'2 0.5 1018.5 29.2
2014-Jul-16 15:00N 29°46' W 070°27'1 0.9 1018.5 29.0
2014-Jul-16 14:00N 29°46' W 070°27'1 0.5 1018.4 29.0
2014-Jul-16 13:00N 29°46' W 070°28'1 0.8 1018.1 28.9
2014-Jul-16 12:00N 29°46' W 070°28'0 0.0 1017.6 28.9
2014-Jul-16 11:00N 29°46' W 070°28'1 0.7 1017.6 28.9
2014-Jul-16 10:00N 29°47' W 070°29'1 1.1 1017.4 28.9
2014-Jul-16 09:00N 29°47' W 070°30'2 0.6 1017.3 28.9
2014-Jul-16 06:00N 29°45' W 070°30'1 1.3 1017.6 29.1
2014-Jul-16 05:00N 29°46' W 070°30'1 0.6 1017.7 29.3
2014-Jul-16 03:00N 29°45' W 070°30'0 0.4 1018.2 29.1
2014-Jul-16 02:00N 29°45' W 070°29'0 0.2 1018.1 29.2
2014-Jul-16 01:00N 29°45' W 070°29'0 0.1 1017.6 29.6
2014-Jul-16 00:00N 29°45' W 070°29'2 0.6 1017.5 29.9
2014-Jul-15 20:00N 29°47' W 070°27'0 0.5 1018.0 31.0
2014-Jul-15 19:00N 29°48' W 070°28'1 0.8 1018.3 30.6
2014-Jul-15 18:00N 29°48' W 070°29'1 0.4 1018.5 30.4
2014-Jul-15 15:00N 29°49' W 070°28'1 0.5 1018.9 29.3
2014-Jul-15 14:00N 29°49' W 070°29'0 0.2 1019.0 29.1
2014-Jul-15 13:00N 29°49' W 070°29'1 0.3 1019.0 28.8
2014-Jul-15 10:00N 29°50' W 070°29'1 0.9 1018.4 28.7
2014-Jul-15 09:00N 29°50' W 070°30'0 0.2 1018.2 28.6
2014-Jul-15 07:00N 29°50' W 070°31'0 0.0 1018.5 28.7
2014-Jul-15 06:00N 29°50' W 070°31'1 0.3 1018.7 28.7
2014-Jul-15 01:00N 29°49' W 070°30'1 0.8 1020.4 29.0
2014-Jul-15 00:00N 29°49' W 070°29'1 0.8 1020.1 29.3
2014-Jul-14 23:00N 29°50' W 070°28'0 0.2 1020.0 29.6
2014-Jul-14 21:00N 29°50' W 070°28'1 0.3 1020.0 30.1
2014-Jul-14 19:00N 29°51' W 070°28'2 1.8 1020.4 29.8
2014-Jul-14 18:00N 29°53' W 070°28'0 0.2 1020.3 29.6
2014-Jul-14 16:00N 29°53' W 070°28'1 0.9 1021.2 29.3
2014-Jul-14 15:00N 29°53' W 070°29'0 0.1 1021.4 28.9
2014-Jul-14 14:00N 29°53' W 070°29'0 0.0 1021.0 28.7
2014-Jul-14 13:00N 29°53' W 070°29'1 0.4 1021.2 28.6
2014-Jul-14 11:00N 29°53' W 070°30'0 0.3 1021.1 28.6
2014-Jul-14 10:00N 29°53' W 070°29'0 0.1 1020.5 28.6
2014-Jul-14 08:00N 29°53' W 070°30'0 0.1 1020.0 28.7
2014-Jul-14 07:00N 29°53' W 070°30'1 0.7 1020.2 28.7
2014-Jul-14 06:00N 29°52' W 070°29'0 0.0 1020.2 28.7
2014-Jul-14 05:00N 29°52' W 070°29'0 0.0 1020.7 28.7
2014-Jul-14 04:00N 29°52' W 070°29'1 0.7 1021.1 28.7
2014-Jul-14 03:00N 29°53' W 070°29'0 0.1 1021.2 28.7
2014-Jul-14 02:00N 29°53' W 070°29'0 0.0 1021.1 28.8
2014-Jul-14 01:00N 29°53' W 070°29'1 0.6 1020.8 28.8
2014-Jul-14 00:00N 29°54' W 070°29'0 0.2 1020.9 28.9
2014-Jul-13 22:00N 29°54' W 070°28'0 0.5 1020.7 29.4
2014-Jul-13 21:00N 29°54' W 070°28'0 0.2 1020.8 29.8
2014-Jul-13 20:00N 29°54' W 070°28'   1021.2 30.7
Track history (hours):
 
Tides and Currents Weather Stations Pressure Air Temp Water Temp Dewpoint Dewpoint Depression Visibility Wind Speed Wind Dir Waves Ship Positions

Drifting buoy 41938

Last reported at 2014-Jul-23 20:00 UTC. Time now 2014-Jul-23 22:12 UTC.
Position N 30°38' W 070°11'.

Barometer 1021.5 mb
Water temperature 28.8 ° C

Date/timePositionNaut miles runAvg speedWind from/ knotsBaromVisibWave heightAir tempDewpointWater temp
2014-Jul-23 20:00N 30°38' W 070°11'0 0.2 1021.5 28.8
2014-Jul-23 19:00N 30°38' W 070°11'0 0.3 1021.6 28.9
2014-Jul-23 18:00N 30°38' W 070°11'1 0.4 1022.2 28.9
2014-Jul-23 16:00N 30°37' W 070°11'4 1.9 1022.1 28.8
2014-Jul-23 14:00N 30°33' W 070°12'2 0.4 1022.3 28.7
2014-Jul-23 10:00N 30°33' W 070°11'3 0.9 1022.1 28.7
2014-Jul-23 07:00N 30°30' W 070°10'2 1.1 1022.0 28.7
2014-Jul-23 05:00N 30°28' W 070°09'2 0.5 1023.0 28.7
2014-Jul-23 02:00N 30°28' W 070°08'1 0.8 1023.2 28.8
2014-Jul-23 01:00N 30°28' W 070°07'0 0.3 1023.2 28.8
2014-Jul-23 00:00N 30°27' W 070°07'1 0.5 1023.0 28.9
2014-Jul-22 21:00N 30°26' W 070°07'0 0.0 1022.5 29.0
2014-Jul-22 19:00N 30°26' W 070°07'3 0.6 1022.7 29.0
2014-Jul-22 15:00N 30°23' W 070°08'4 3.7 1023.5 28.7
2014-Jul-22 14:00N 30°20' W 070°08'0 0.1 1023.2 28.7
2014-Jul-22 10:00N 30°19' W 070°08'1 1.1 1022.1 28.6
2014-Jul-22 09:00N 30°19' W 070°07'1 1.0 1021.9 28.6
2014-Jul-22 08:00N 30°18' W 070°06'1 1.2 1021.8 28.6
2014-Jul-22 07:00N 30°17' W 070°06'2 1.0 1021.9 28.6
2014-Jul-22 05:00N 30°15' W 070°06'0 0.0 1022.5 28.7
2014-Jul-22 04:00N 30°15' W 070°06'1 0.3 1023.2 28.7
2014-Jul-22 02:00N 30°15' W 070°05'2 1.8 1023.5 28.8
2014-Jul-22 01:00N 30°13' W 070°05'0 0.0 1022.9 28.8
2014-Jul-22 00:00N 30°13' W 070°05'0 0.0 1022.6 28.8
2014-Jul-21 23:00N 30°13' W 070°05'0 0.0 1022.2 28.9
2014-Jul-21 22:00N 30°13' W 070°05'1 0.8 1022.1 29.0
2014-Jul-21 21:00N 30°13' W 070°06'0 0.3 1022.0 29.0
2014-Jul-21 20:00N 30°12' W 070°06'2 1.0 1022.1 29.1
2014-Jul-21 18:00N 30°10' W 070°07'0 0.1 1022.8 28.9
2014-Jul-21 17:00N 30°10' W 070°06'2 0.8 1023.0 28.8
2014-Jul-21 15:00N 30°09' W 070°06'0 0.5 1023.0 28.7
2014-Jul-21 14:00N 30°08' W 070°07'2 1.6 1022.9 28.6
2014-Jul-21 13:00N 30°07' W 070°07'0 0.0 1022.7 28.6
2014-Jul-21 12:00N 30°07' W 070°07'0 0.0 1022.5 28.5
2014-Jul-21 11:00N 30°07' W 070°07'1 0.7 1022.2 28.5
2014-Jul-21 10:00N 30°06' W 070°07'1 1.0 1021.7 28.5
2014-Jul-21 09:00N 30°05' W 070°07'1 0.7 1021.2 28.5
2014-Jul-21 08:00N 30°04' W 070°07'1 1.3 1021.1 28.6
2014-Jul-21 07:00N 30°03' W 070°07'0 0.0 1021.2 28.6
2014-Jul-21 05:00N 30°03' W 070°07'2 0.9 1022.1 28.6
2014-Jul-21 03:00N 30°02' W 070°06'1 0.5 1022.3 28.6
2014-Jul-21 02:00N 30°01' W 070°05'0 0.4 1022.3 28.7
2014-Jul-21 01:00N 30°01' W 070°06'0 0.0 1021.9 28.7
2014-Jul-21 00:00N 30°01' W 070°06'0 0.3 1021.5 28.7
2014-Jul-20 23:00N 30°01' W 070°06'0 0.4 1021.3 28.8
2014-Jul-20 22:00N 30°00' W 070°06'0 0.4 1021.3 28.8
2014-Jul-20 21:00N 30°00' W 070°07'1 0.6 1021.0 28.9
2014-Jul-20 19:00N 29°59' W 070°07'1 1.3 1021.7 28.8
2014-Jul-20 18:00N 29°58' W 070°08'1 1.3 1022.1 28.7
2014-Jul-20 17:00N 29°57' W 070°08'0 0.0 1022.3 28.7
2014-Jul-20 15:00N 29°57' W 070°08'1 0.5 1022.5 28.6
2014-Jul-20 14:00N 29°56' W 070°07'1 0.6 1022.2 28.5
2014-Jul-20 13:00N 29°56' W 070°08'1 0.7 1021.7 28.5
2014-Jul-20 12:00N 29°55' W 070°08'0 0.3 1021.7 28.5
2014-Jul-20 11:00N 29°55' W 070°08'1 0.8 1021.3 28.5
2014-Jul-20 10:00N 29°55' W 070°08'1 0.5 1020.7 28.5
2014-Jul-20 09:00N 29°54' W 070°08'1 0.8 1020.9 28.5
2014-Jul-20 08:00N 29°53' W 070°08'0 0.0 1020.8 28.5
2014-Jul-20 07:00N 29°53' W 070°08'2 0.9 1021.1 28.5
2014-Jul-20 05:00N 29°51' W 070°09'0 0.0 1022.2 28.5
2014-Jul-20 04:00N 29°51' W 070°09'1 0.3 1022.6 28.5
2014-Jul-20 01:00N 29°51' W 070°09'1 0.6 1022.3 28.6
2014-Jul-20 00:00N 29°50' W 070°09'1 0.4 1021.9 28.6
2014-Jul-19 22:00N 29°49' W 070°09'1 0.6 1021.3 28.6
2014-Jul-19 21:00N 29°49' W 070°10'1 0.8 1021.2 28.6
2014-Jul-19 20:00N 29°49' W 070°09'1 1.1 1021.3 28.6
2014-Jul-19 19:00N 29°48' W 070°10'0 0.0 1021.4 28.6
2014-Jul-19 17:00N 29°48' W 070°10'1 0.3 1022.0 28.6
2014-Jul-19 15:00N 29°48' W 070°10'0 0.3 1022.1 28.5
2014-Jul-19 14:00N 29°48' W 070°11'3 0.7 1022.5 28.5
2014-Jul-19 10:00N 29°46' W 070°13'0 0.0 1021.8 28.5
2014-Jul-19 09:00N 29°46' W 070°13'1 0.6 1021.6 28.5
2014-Jul-19 08:00N 29°46' W 070°14'1 1.0 1021.1 28.5
2014-Jul-19 07:00N 29°45' W 070°14'1 1.2 1021.1 28.5
2014-Jul-19 06:00N 29°43' W 070°13'1 0.2 1021.5 28.5
2014-Jul-19 02:00N 29°43' W 070°12'1 1.1 1022.1 28.6
2014-Jul-19 01:00N 29°43' W 070°14'1 0.6 1021.8 28.6
2014-Jul-19 00:00N 29°44' W 070°14'0 0.0 1021.5 28.6
2014-Jul-18 23:00N 29°44' W 070°14'0 0.2 1021.1 28.6
2014-Jul-18 22:00N 29°43' W 070°14'1 0.6 1020.8 28.6
2014-Jul-18 20:00N 29°43' W 070°15'0 0.0 1021.0 28.7
2014-Jul-18 19:00N 29°43' W 070°15'1 0.5 1021.2 28.7
2014-Jul-18 17:00N 29°42' W 070°16'0 0.2 1021.2 28.7
2014-Jul-18 16:00N 29°43' W 070°16'0 0.1 1021.4 28.7
2014-Jul-18 15:00N 29°43' W 070°16'1 1.2 1021.4 28.7
2014-Jul-18 14:00N 29°42' W 070°18'0 0.1 1021.4 28.6
2014-Jul-18 10:00N 29°42' W 070°17'0 0.0 1020.4 28.6
2014-Jul-18 09:00N 29°42' W 070°17'1 1.2 1019.8 28.7
2014-Jul-18 08:00N 29°42' W 070°19'2 1.0 1019.6 28.7
2014-Jul-18 06:00N 29°41' W 070°21'0 0.0 1019.6 28.7
2014-Jul-18 02:00N 29°41' W 070°20'0 0.3 1020.5 28.8
2014-Jul-18 01:00N 29°41' W 070°20'1 0.5 1020.3 28.8
2014-Jul-18 00:00N 29°41' W 070°20'0 0.0 1019.7 28.8
2014-Jul-17 23:00N 29°41' W 070°20'1 0.9 1019.6 28.8
2014-Jul-17 22:00N 29°42' W 070°20'1 0.4 1019.4 28.8
2014-Jul-17 20:00N 29°41' W 070°21'1 0.8 1019.5 28.9
2014-Jul-17 19:00N 29°42' W 070°21'2 0.4 1019.6 28.9
2014-Jul-17 15:00N 29°43' W 070°22'1 0.7 1019.9 28.8
2014-Jul-17 14:00N 29°44' W 070°23'1 0.5 1019.7 28.8
2014-Jul-17 11:00N 29°44' W 070°24'3 1.0 1019.0 28.8
2014-Jul-17 08:00N 29°43' W 070°28'1 0.6 1017.9 28.9
2014-Jul-17 06:00N 29°42' W 070°27'1 0.2 1018.6 29.0
2014-Jul-17 01:00N 29°42' W 070°26'1 0.6 1019.0 29.2
2014-Jul-17 00:00N 29°43' W 070°26'1 0.3 1018.9 29.2
2014-Jul-16 22:00N 29°43' W 070°26'1 0.6 1018.1 29.3
2014-Jul-16 20:00N 29°44' W 070°26'0 0.0 1018.2 29.3
2014-Jul-16 18:00N 29°44' W 070°26'2 0.5 1018.5 29.2
2014-Jul-16 15:00N 29°46' W 070°27'1 0.9 1018.5 29.0
2014-Jul-16 14:00N 29°46' W 070°27'1 0.5 1018.4 29.0
2014-Jul-16 13:00N 29°46' W 070°28'1 0.8 1018.1 28.9
2014-Jul-16 12:00N 29°46' W 070°28'0 0.0 1017.6 28.9
2014-Jul-16 11:00N 29°46' W 070°28'1 0.7 1017.6 28.9
2014-Jul-16 10:00N 29°47' W 070°29'1 1.1 1017.4 28.9
2014-Jul-16 09:00N 29°47' W 070°30'2 0.6 1017.3 28.9
2014-Jul-16 06:00N 29°45' W 070°30'1 1.3 1017.6 29.1
2014-Jul-16 05:00N 29°46' W 070°30'1 0.6 1017.7 29.3
2014-Jul-16 03:00N 29°45' W 070°30'0 0.4 1018.2 29.1
2014-Jul-16 02:00N 29°45' W 070°29'0 0.2 1018.1 29.2
2014-Jul-16 01:00N 29°45' W 070°29'0 0.1 1017.6 29.6
2014-Jul-16 00:00N 29°45' W 070°29'2 0.6 1017.5 29.9
2014-Jul-15 20:00N 29°47' W 070°27'0 0.5 1018.0 31.0
2014-Jul-15 19:00N 29°48' W 070°28'1 0.8 1018.3 30.6
2014-Jul-15 18:00N 29°48' W 070°29'1 0.4 1018.5 30.4
2014-Jul-15 15:00N 29°49' W 070°28'1 0.5 1018.9 29.3
2014-Jul-15 14:00N 29°49' W 070°29'0 0.2 1019.0 29.1
2014-Jul-15 13:00N 29°49' W 070°29'1 0.3 1019.0 28.8
2014-Jul-15 10:00N 29°50' W 070°29'1 0.9 1018.4 28.7
2014-Jul-15 09:00N 29°50' W 070°30'0 0.2 1018.2 28.6
2014-Jul-15 07:00N 29°50' W 070°31'0 0.0 1018.5 28.7
2014-Jul-15 06:00N 29°50' W 070°31'1 0.3 1018.7 28.7
2014-Jul-15 01:00N 29°49' W 070°30'1 0.8 1020.4 29.0
2014-Jul-15 00:00N 29°49' W 070°29'1 0.8 1020.1 29.3
2014-Jul-14 23:00N 29°50' W 070°28'0 0.2 1020.0 29.6
2014-Jul-14 21:00N 29°50' W 070°28'1 0.3 1020.0 30.1
2014-Jul-14 19:00N 29°51' W 070°28'2 1.8 1020.4 29.8
2014-Jul-14 18:00N 29°53' W 070°28'0 0.2 1020.3 29.6
2014-Jul-14 16:00N 29°53' W 070°28'1 0.9 1021.2 29.3
2014-Jul-14 15:00N 29°53' W 070°29'0 0.1 1021.4 28.9
2014-Jul-14 14:00N 29°53' W 070°29'0 0.0 1021.0 28.7
2014-Jul-14 13:00N 29°53' W 070°29'1 0.4 1021.2 28.6
2014-Jul-14 11:00N 29°53' W 070°30'0 0.3 1021.1 28.6
2014-Jul-14 10:00N 29°53' W 070°29'0 0.1 1020.5 28.6
2014-Jul-14 08:00N 29°53' W 070°30'0 0.1 1020.0 28.7
2014-Jul-14 07:00N 29°53' W 070°30'1 0.7 1020.2 28.7
2014-Jul-14 06:00N 29°52' W 070°29'0 0.0 1020.2 28.7
2014-Jul-14 05:00N 29°52' W 070°29'0 0.0 1020.7 28.7
2014-Jul-14 04:00N 29°52' W 070°29'1 0.7 1021.1 28.7
2014-Jul-14 03:00N 29°53' W 070°29'0 0.1 1021.2 28.7
2014-Jul-14 02:00N 29°53' W 070°29'0 0.0 1021.1 28.8
2014-Jul-14 01:00N 29°53' W 070°29'1 0.6 1020.8 28.8
2014-Jul-14 00:00N 29°54' W 070°29'0 0.2 1020.9 28.9
2014-Jul-13 22:00N 29°54' W 070°28'0 0.5 1020.7 29.4
2014-Jul-13 21:00N 29°54' W 070°28'0 0.2 1020.8 29.8
2014-Jul-13 20:00N 29°54' W 070°28'   1021.2 30.7

Dump ship's entire track history